createdAt,value
2018-04-04T00:01:06.237Z,12.20
2018-04-04T00:03:33.589Z,10.03
2018-04-04T00:06:00.966Z,7.07
2018-04-04T00:08:28.360Z,11.90
2018-04-04T00:10:55.717Z,9.97
2018-04-04T00:13:23.380Z,8.67
2018-04-04T00:15:50.761Z,8.80
2018-04-04T00:18:18.180Z,13.40
2018-04-04T00:20:45.549Z,12.43
2018-04-04T00:23:12.925Z,9.90
2018-04-04T00:25:40.298Z,10.80
2018-04-04T00:28:07.681Z,10.50
2018-04-04T00:30:35.042Z,10.47
2018-04-04T00:33:02.393Z,10.40
2018-04-04T00:35:29.774Z,11.67
2018-04-04T00:37:57.128Z,9.53
2018-04-04T00:40:24.469Z,10.40
2018-04-04T00:42:51.848Z,10.40
2018-04-04T00:45:19.230Z,13.60
2018-04-04T00:47:46.603Z,8.67
2018-04-04T00:50:13.995Z,15.23
2018-04-04T00:52:41.359Z,13.83
2018-04-04T00:55:08.712Z,11.83
2018-04-04T00:57:36.185Z,10.90
2018-04-04T01:00:03.578Z,13.60
2018-04-04T01:02:31.409Z,13.43
2018-04-04T01:04:58.849Z,10.43
2018-04-04T01:07:26.232Z,13.53
2018-04-04T01:09:53.625Z,16.93
2018-04-04T01:12:20.982Z,11.53
2018-04-04T01:14:48.332Z,8.90
2018-04-04T01:17:15.719Z,10.50
2018-04-04T01:19:43.069Z,15.40
2018-04-04T01:22:10.423Z,11.00
2018-04-04T01:24:37.821Z,14.10
2018-04-04T01:27:05.186Z,10.60
2018-04-04T01:29:32.553Z,15.07
2018-04-04T01:31:59.990Z,16.53
2018-04-04T01:34:27.341Z,10.80
2018-04-04T01:36:54.688Z,12.47
2018-04-04T01:39:22.071Z,10.80
2018-04-04T01:41:49.426Z,10.30
2018-04-04T01:44:16.828Z,13.73
2018-04-04T01:46:44.209Z,14.13
2018-04-04T01:49:11.561Z,15.20
2018-04-04T01:51:38.932Z,13.70
2018-04-04T01:54:06.313Z,14.77
2018-04-04T01:56:33.702Z,13.33
2018-04-04T01:59:01.054Z,11.53
2018-04-04T02:01:28.413Z,10.77
2018-04-04T02:03:55.787Z,11.03
2018-04-04T02:06:23.190Z,11.57
2018-04-04T02:08:50.541Z,11.30
2018-04-04T02:11:18.557Z,13.07
2018-04-04T02:13:45.957Z,15.10
2018-04-04T02:16:13.313Z,13.97
2018-04-04T02:18:40.661Z,13.70
2018-04-04T02:21:08.050Z,12.30
2018-04-04T02:23:35.406Z,13.27
2018-04-04T02:26:02.774Z,14.30
2018-04-04T02:28:30.158Z,12.30
2018-04-04T02:30:57.507Z,11.60
2018-04-04T02:33:24.889Z,12.83
2018-04-04T02:35:52.305Z,11.20
2018-04-04T02:38:19.700Z,12.10
2018-04-04T02:40:47.068Z,11.20
2018-04-04T02:43:14.429Z,11.83
2018-04-04T02:45:41.811Z,10.80
2018-04-04T02:48:09.162Z,15.03
2018-04-04T02:50:36.573Z,14.50
2018-04-04T02:53:03.925Z,13.67
2018-04-04T02:55:31.290Z,16.20
2018-04-04T02:57:58.674Z,14.13
2018-04-04T03:00:26.025Z,14.37
2018-04-04T03:02:53.375Z,10.13
2018-04-04T03:05:20.786Z,14.23
2018-04-04T03:07:48.142Z,19.33
2018-04-04T03:10:15.501Z,12.87
2018-04-04T03:12:42.882Z,13.30
2018-04-04T03:15:10.230Z,15.23
2018-04-04T03:17:37.602Z,16.43
2018-04-04T03:20:04.978Z,12.07
2018-04-04T03:22:32.342Z,15.10
2018-04-04T03:24:59.735Z,14.00
2018-04-04T03:27:27.097Z,20.13
2018-04-04T03:29:54.454Z,13.53
2018-04-04T03:32:21.866Z,25.23
2018-04-04T03:34:49.225Z,17.10
2018-04-04T03:37:16.621Z,15.10
2018-04-04T03:39:44.007Z,14.77
2018-04-04T03:42:11.368Z,20.30
2018-04-04T03:44:38.798Z,15.30
2018-04-04T03:47:06.174Z,16.43
2018-04-04T03:49:33.521Z,19.20
2018-04-04T03:52:00.905Z,19.07
2018-04-04T03:54:28.265Z,18.67
2018-04-04T03:56:55.758Z,18.03
2018-04-04T03:59:23.112Z,15.47
2018-04-04T04:01:50.495Z,16.33
2018-04-04T04:04:17.848Z,13.83
2018-04-04T04:06:45.230Z,18.00
2018-04-04T04:09:12.601Z,18.33
2018-04-04T04:11:39.964Z,24.23
2018-04-04T04:14:07.471Z,18.47
2018-04-04T04:16:34.837Z,17.37
2018-04-04T04:19:02.197Z,17.57
2018-04-04T04:21:29.633Z,17.23
2018-04-04T04:23:56.993Z,22.97
2018-04-04T04:26:24.350Z,18.30
2018-04-04T04:28:51.740Z,17.20
2018-04-04T04:31:19.182Z,17.33
2018-04-04T04:33:46.587Z,19.70
2018-04-04T04:36:14.037Z,16.53
2018-04-04T04:38:41.396Z,17.40
2018-04-04T04:41:08.794Z,18.20
2018-04-04T04:43:36.150Z,19.50
2018-04-04T04:46:03.504Z,22.43
2018-04-04T04:48:30.889Z,22.17
2018-04-04T04:50:58.243Z,16.63
2018-04-04T04:53:25.627Z,22.93
2018-04-04T04:55:52.989Z,16.87
2018-04-04T04:58:20.403Z,18.47
2018-04-04T05:00:47.795Z,21.30
2018-04-04T05:03:15.150Z,18.80
2018-04-04T05:05:42.536Z,17.13
2018-04-04T05:08:09.926Z,17.20
2018-04-04T05:10:37.313Z,18.00
2018-04-04T05:13:04.674Z,18.50
2018-04-04T05:15:32.063Z,21.50
2018-04-04T05:17:59.422Z,22.27
2018-04-04T05:20:26.817Z,24.60
2018-04-04T05:22:54.222Z,18.20
2018-04-04T05:25:21.581Z,23.73
2018-04-04T05:27:48.945Z,22.87
2018-04-04T05:30:16.346Z,14.10
2018-04-04T05:32:43.698Z,16.13
2018-04-04T05:35:11.246Z,15.43
2018-04-04T05:37:38.629Z,21.63
2018-04-04T05:40:06.007Z,19.07
2018-04-04T05:42:33.402Z,17.50
2018-04-04T05:45:00.757Z,18.80
2018-04-04T05:47:28.122Z,23.30
2018-04-04T05:49:55.512Z,20.77
2018-04-04T05:52:22.875Z,20.47
2018-04-04T05:54:50.258Z,21.83
2018-04-04T05:57:17.630Z,19.53
2018-04-04T05:59:45.013Z,17.93
2018-04-04T06:02:12.376Z,16.43
2018-04-04T06:04:39.726Z,15.50
2018-04-04T06:07:07.129Z,17.17
2018-04-04T06:09:34.478Z,21.03
2018-04-04T06:12:01.829Z,13.50
2018-04-04T06:14:29.209Z,15.50
2018-04-04T06:16:56.553Z,13.07
2018-04-04T06:19:23.966Z,12.63
2018-04-04T06:21:51.330Z,17.43
2018-04-04T06:24:18.684Z,19.73
2018-04-04T06:26:46.060Z,16.30
2018-04-04T06:29:13.446Z,15.00
2018-04-04T06:31:40.829Z,12.43
2018-04-04T06:34:08.195Z,14.63
2018-04-04T06:36:35.582Z,13.83
2018-04-04T06:39:02.946Z,13.87
2018-04-04T06:41:30.307Z,11.33
2018-04-04T06:43:57.705Z,11.40
2018-04-04T06:46:25.066Z,18.83
2018-04-04T06:48:52.420Z,16.43
2018-04-04T06:51:19.799Z,13.57
2018-04-04T06:53:47.160Z,15.27
2018-04-04T06:56:14.561Z,13.50
2018-04-04T06:58:41.957Z,14.57
2018-04-04T07:01:09.315Z,17.17
2018-04-04T07:03:36.693Z,17.60
2018-04-04T07:06:04.040Z,15.43
2018-04-04T07:08:31.432Z,13.13
2018-04-04T07:10:58.793Z,18.73
2018-04-04T07:13:26.146Z,14.03
2018-04-04T07:15:53.531Z,12.10
2018-04-04T07:18:20.907Z,14.93
2018-04-04T07:20:48.308Z,15.03
2018-04-04T07:23:15.769Z,12.07
2018-04-04T07:25:43.137Z,24.77
2018-04-04T07:28:10.545Z,13.80
2018-04-04T07:30:37.892Z,14.10
2018-04-04T07:33:05.261Z,15.47
2018-04-04T07:35:32.655Z,13.00
2018-04-04T07:38:00.005Z,7.83
2018-04-04T07:40:27.362Z,13.60
2018-04-04T07:42:54.741Z,8.10
2018-04-04T07:45:22.103Z,10.27
2018-04-04T07:47:49.460Z,11.20
2018-04-04T07:50:16.843Z,11.50
2018-04-04T07:52:44.199Z,9.03
2018-04-04T07:55:11.586Z,10.50
2018-04-04T07:57:38.974Z,13.30
2018-04-04T08:00:06.317Z,12.63
2018-04-04T08:02:33.697Z,10.13
2018-04-04T08:05:01.102Z,16.63
2018-04-04T08:07:28.453Z,11.00
2018-04-04T08:09:55.810Z,10.33
2018-04-04T08:12:23.196Z,9.50
2018-04-04T08:14:50.560Z,10.90
2018-04-04T08:17:17.913Z,12.93
2018-04-04T08:19:45.303Z,13.20
2018-04-04T08:22:12.664Z,10.77
2018-04-04T08:24:40.036Z,14.87
2018-04-04T08:27:07.450Z,9.07
2018-04-04T08:29:34.827Z,10.30
2018-04-04T08:32:02.174Z,8.87
2018-04-04T08:34:29.572Z,12.20
2018-04-04T08:36:56.933Z,12.00
2018-04-04T08:39:24.287Z,11.50
2018-04-04T08:41:51.669Z,10.13
2018-04-04T08:44:19.145Z,5.23
2018-04-04T08:46:46.545Z,10.83
2018-04-04T08:49:13.890Z,13.20
2018-04-04T08:51:41.282Z,12.33
2018-04-04T08:54:08.652Z,12.90
2018-04-04T08:56:36.034Z,14.40
2018-04-04T08:59:03.431Z,7.40
2018-04-04T09:01:30.790Z,12.53
2018-04-04T09:03:58.137Z,8.67
2018-04-04T09:06:25.528Z,6.87
2018-04-04T09:08:52.922Z,8.37
2018-04-04T09:11:20.270Z,6.57
2018-04-04T09:13:47.622Z,11.03
2018-04-04T09:16:15.003Z,6.20
2018-04-04T09:18:42.343Z,7.67
2018-04-04T09:21:09.717Z,9.50
2018-04-04T09:23:37.069Z,8.13
2018-04-04T09:26:04.466Z,4.80
2018-04-04T09:28:32.637Z,12.17
2018-04-04T09:30:59.986Z,8.23
2018-04-04T09:33:27.358Z,8.60
2018-04-04T09:35:54.753Z,6.97
2018-04-04T09:38:22.097Z,5.13
2018-04-04T09:40:49.469Z,6.00
2018-04-04T09:43:16.888Z,9.93
2018-04-04T09:45:44.244Z,12.43
2018-04-04T09:48:11.628Z,8.27
2018-04-04T09:50:38.992Z,9.23
2018-04-04T09:53:06.380Z,10.10
2018-04-04T09:55:33.734Z,6.90
2018-04-04T09:58:01.089Z,15.07
2018-04-04T10:00:28.476Z,8.77
2018-04-04T10:02:55.816Z,8.13
2018-04-04T10:05:23.197Z,9.30
2018-04-04T10:07:50.550Z,13.73
2018-04-04T10:10:17.904Z,8.67
2018-04-04T10:12:45.302Z,12.40
2018-04-04T10:15:12.640Z,8.40
2018-04-04T10:17:39.986Z,11.03
2018-04-04T10:20:07.390Z,10.50
2018-04-04T10:22:34.742Z,5.20
2018-04-04T10:25:02.087Z,8.37
2018-04-04T10:27:29.489Z,6.63
2018-04-04T10:29:56.881Z,9.53
2018-04-04T10:32:24.290Z,20.43
2018-04-04T10:34:51.641Z,11.73
2018-04-04T10:37:19.105Z,8.80
2018-04-04T10:39:46.486Z,9.33
2018-04-04T10:42:13.909Z,13.83
2018-04-04T10:44:41.257Z,8.40
2018-04-04T10:47:08.597Z,9.03
2018-04-04T10:49:35.970Z,6.20
2018-04-04T10:52:03.337Z,8.80
2018-04-04T10:54:30.730Z,14.43
2018-04-04T10:56:58.141Z,7.03
2018-04-04T10:59:25.525Z,10.77
2018-04-04T11:01:52.885Z,7.50
2018-04-04T11:04:20.291Z,10.07
2018-04-04T11:06:47.653Z,9.03
2018-04-04T11:09:15.001Z,5.53
2018-04-04T11:11:42.406Z,8.90
2018-04-04T11:14:09.857Z,10.50
2018-04-04T11:16:37.202Z,9.43
2018-04-04T11:19:04.562Z,8.47
2018-04-04T11:21:31.990Z,7.20
2018-04-04T11:23:59.454Z,10.43
2018-04-04T11:26:26.806Z,6.00
2018-04-04T11:28:54.191Z,4.60
2018-04-04T11:31:21.545Z,5.37
2018-04-04T11:33:48.888Z,3.70
2018-04-04T11:36:16.281Z,8.23
2018-04-04T11:38:43.625Z,5.33
2018-04-04T11:41:10.972Z,5.83
2018-04-04T11:43:38.377Z,3.47
2018-04-04T11:46:05.734Z,3.93
2018-04-04T11:48:33.088Z,9.97
2018-04-04T11:51:00.462Z,8.07
2018-04-04T11:53:27.817Z,7.70
2018-04-04T11:55:55.217Z,10.23
2018-04-04T11:58:22.565Z,5.33
2018-04-04T12:00:49.916Z,7.27
2018-04-04T12:03:17.845Z,6.93
2018-04-04T12:05:45.205Z,6.43
2018-04-04T12:08:12.586Z,12.80
2018-04-04T12:10:39.994Z,7.20
2018-04-04T12:13:07.337Z,8.70
2018-04-04T12:15:34.689Z,8.43
2018-04-04T12:18:02.080Z,12.97
2018-04-04T12:20:29.442Z,10.27
2018-04-04T12:25:23.628Z,11.33
2018-04-04T12:27:51.085Z,6.57
2018-04-04T12:30:18.429Z,9.47
2018-04-04T12:32:45.826Z,7.07
2018-04-04T12:35:13.175Z,10.97
2018-04-04T12:37:40.894Z,14.60
2018-04-04T12:40:08.902Z,12.37
2018-04-04T12:42:36.341Z,8.17
2018-04-04T12:45:05.757Z,10.37
2018-04-04T12:47:33.133Z,8.33
2018-04-04T12:50:00.519Z,9.90
2018-04-04T12:52:27.880Z,10.67
2018-04-04T12:54:55.282Z,6.60
2018-04-04T12:57:22.629Z,8.00
2018-04-04T12:59:50.000Z,9.40
2018-04-04T13:02:17.344Z,6.20
2018-04-04T13:04:44.733Z,4.33
2018-04-04T13:07:12.082Z,6.40
2018-04-04T13:09:39.434Z,7.10
2018-04-04T13:12:06.810Z,4.20
2018-04-04T13:14:34.181Z,5.27
2018-04-04T13:17:01.536Z,7.03
2018-04-04T13:19:28.963Z,5.10
2018-04-04T13:21:56.326Z,3.23
2018-04-04T13:24:23.732Z,5.37
2018-04-04T13:26:51.139Z,4.83
2018-04-04T13:29:18.485Z,8.80
2018-04-04T13:31:45.872Z,7.60
2018-04-04T13:34:13.224Z,6.00
2018-04-04T13:36:40.577Z,7.67
2018-04-04T13:39:08.018Z,6.27
2018-04-04T13:41:35.383Z,5.03
2018-04-04T13:44:02.747Z,6.07
2018-04-04T13:46:33.369Z,5.53
2018-04-04T13:49:00.732Z,6.67
2018-04-04T13:51:28.075Z,5.60
2018-04-04T13:53:55.566Z,5.70
2018-04-04T13:56:22.949Z,5.40
2018-04-04T13:58:50.288Z,4.17
2018-04-04T14:01:17.649Z,5.03
2018-04-04T14:03:45.010Z,3.70
2018-04-04T14:06:12.401Z,11.20
2018-04-04T14:08:39.760Z,3.20
2018-04-04T14:11:07.153Z,5.93
2018-04-04T14:13:34.596Z,4.43
2018-04-04T14:16:01.950Z,5.63
2018-04-04T14:18:29.295Z,9.40
2018-04-04T14:20:56.679Z,3.67
2018-04-04T14:23:24.017Z,5.23
2018-04-04T14:25:51.367Z,7.70
2018-04-04T14:28:18.763Z,9.77
2018-04-04T14:30:46.134Z,7.80
2018-04-04T14:33:13.489Z,9.97
2018-04-04T14:35:40.890Z,16.13
2018-04-04T14:38:08.242Z,10.37
2018-04-04T14:40:35.591Z,6.00
2018-04-04T14:43:03.002Z,16.43
2018-04-04T14:45:30.465Z,6.43
2018-04-04T14:47:57.885Z,7.23
2018-04-04T14:50:25.289Z,8.77
2018-04-04T14:52:52.647Z,12.20
2018-04-04T14:55:20.006Z,6.10
2018-04-04T14:57:47.377Z,9.10
2018-04-04T15:00:14.741Z,5.20
2018-04-04T15:02:42.190Z,6.33
2018-04-04T15:05:09.544Z,4.73
2018-04-04T15:07:36.886Z,6.90
2018-04-04T15:10:04.265Z,4.97
2018-04-04T15:12:31.629Z,9.43
2018-04-04T15:14:58.997Z,9.33
2018-04-04T15:17:26.372Z,5.80
2018-04-04T15:19:53.718Z,13.70
2018-04-04T15:22:21.062Z,8.97
2018-04-04T15:24:48.430Z,6.20
2018-04-04T15:27:15.813Z,7.90
2018-04-04T15:29:44.098Z,9.27
2018-04-04T15:32:11.629Z,17.00
2018-04-04T15:34:39.045Z,12.77
2018-04-04T15:37:06.395Z,6.87
2018-04-04T15:39:33.752Z,10.53
2018-04-04T15:42:01.145Z,5.90
2018-04-04T15:44:28.492Z,4.90
2018-04-04T15:46:55.836Z,4.67
2018-04-04T15:49:23.209Z,5.27
2018-04-04T15:51:50.625Z,7.03
2018-04-04T15:54:17.983Z,6.40
2018-04-04T15:56:45.365Z,5.87
2018-04-04T15:59:12.745Z,7.87
2018-04-04T16:01:40.136Z,5.80
2018-04-04T16:04:07.494Z,7.33
2018-04-04T16:06:35.593Z,6.90
2018-04-04T16:09:02.974Z,3.70
2018-04-04T16:11:30.397Z,4.93
2018-04-04T16:13:57.744Z,6.10
2018-04-04T16:16:25.773Z,7.97
2018-04-04T16:18:53.833Z,8.20
2018-04-04T16:21:21.378Z,9.10
2018-04-04T16:23:48.726Z,6.00
2018-04-04T16:26:16.274Z,6.53
2018-04-04T16:28:43.617Z,7.73
2018-04-04T16:31:11.033Z,7.23
2018-04-04T16:33:38.409Z,5.80
2018-04-04T16:36:05.890Z,5.37
2018-04-04T16:38:33.250Z,6.60
2018-04-04T16:41:00.626Z,6.73
2018-04-04T16:43:28.014Z,5.50
2018-04-04T16:45:55.360Z,9.23
2018-04-04T16:48:22.765Z,5.07
2018-04-04T16:50:50.195Z,6.30
2018-04-04T16:53:17.591Z,6.80
2018-04-04T16:55:44.943Z,8.23
2018-04-04T16:58:12.289Z,8.07
2018-04-04T17:00:39.662Z,7.53
2018-04-04T17:03:07.073Z,13.43
2018-04-04T17:05:34.426Z,10.77
2018-04-04T17:08:01.852Z,12.93
2018-04-04T17:10:29.225Z,12.03
2018-04-04T17:12:56.581Z,9.83
2018-04-04T17:15:23.961Z,9.90
2018-04-04T17:17:51.426Z,9.67
2018-04-04T17:20:18.770Z,7.53
2018-04-04T17:22:46.128Z,9.00
2018-04-04T17:25:13.505Z,6.97
2018-04-04T17:27:40.882Z,10.33
2018-04-04T17:30:08.265Z,7.10
2018-04-04T17:32:35.612Z,13.07
2018-04-04T17:35:02.954Z,7.23
2018-04-04T17:37:30.327Z,11.23
2018-04-04T17:39:57.678Z,13.03
2018-04-04T17:42:25.021Z,9.70
2018-04-04T17:44:52.402Z,14.70
2018-04-04T17:47:19.754Z,15.47
2018-04-04T17:49:47.126Z,13.03
2018-04-04T17:52:14.518Z,9.43
2018-04-04T17:54:41.873Z,10.73
2018-04-04T17:57:09.325Z,14.60
2018-04-04T17:59:36.725Z,10.27
2018-04-04T18:02:04.125Z,11.00
2018-04-04T18:04:31.556Z,9.43
2018-04-04T18:06:58.933Z,11.37
2018-04-04T18:09:26.298Z,13.33
2018-04-04T18:11:53.722Z,11.97
2018-04-04T18:14:21.109Z,8.90
2018-04-04T18:16:48.517Z,13.30
2018-04-04T18:19:15.870Z,12.10
2018-04-04T18:21:43.258Z,10.70
2018-04-04T18:24:10.739Z,11.20
2018-04-04T18:26:38.099Z,10.93
2018-04-04T18:29:05.453Z,15.80
2018-04-04T18:31:32.872Z,11.23
2018-04-04T18:34:00.230Z,13.87
2018-04-04T18:36:27.593Z,16.33
2018-04-04T18:38:54.979Z,12.60
2018-04-04T18:41:22.334Z,8.63
2018-04-04T18:43:49.707Z,13.17
2018-04-04T18:46:17.088Z,14.37
2018-04-04T18:48:44.486Z,17.53
2018-04-04T18:51:11.850Z,14.27
2018-04-04T18:53:39.238Z,11.50
2018-04-04T18:56:06.585Z,13.73
2018-04-04T18:58:33.937Z,18.80
2018-04-04T19:01:01.321Z,12.30
2018-04-04T19:03:28.682Z,12.33
2018-04-04T19:05:56.045Z,20.93
2018-04-04T19:08:23.417Z,12.13
2018-04-04T19:10:50.803Z,9.20
2018-04-04T19:13:18.190Z,24.60
2018-04-04T19:15:45.553Z,21.33
2018-04-04T19:18:12.909Z,16.73
2018-04-04T19:20:40.315Z,23.90
2018-04-04T19:23:07.677Z,19.47
2018-04-04T19:25:35.038Z,21.50
2018-04-04T19:28:02.438Z,10.00
2018-04-04T19:30:29.827Z,6.73
2018-04-04T19:32:57.173Z,4.30
2018-04-04T19:35:24.697Z,5.80
2018-04-04T19:37:52.042Z,4.93
2018-04-04T19:40:19.429Z,3.13
2018-04-04T19:42:46.777Z,2.23
2018-04-04T19:45:14.154Z,2.13
2018-04-04T19:47:41.517Z,1.77
2018-04-04T19:50:08.860Z,3.13
2018-04-04T19:52:36.250Z,5.30
2018-04-04T19:55:03.603Z,5.07
2018-04-04T19:57:30.944Z,4.73
2018-04-04T19:59:58.356Z,3.33
2018-04-04T20:02:25.738Z,11.30
2018-04-04T20:04:53.090Z,5.30
2018-04-04T20:07:20.446Z,7.80
2018-04-04T20:09:47.837Z,5.30
2018-04-04T20:12:15.182Z,3.83
2018-04-04T20:14:42.582Z,15.00
2018-04-04T20:17:09.938Z,4.60
2018-04-04T20:19:37.281Z,4.17
2018-04-04T20:22:04.681Z,11.43
2018-04-04T20:24:32.093Z,5.67
2018-04-04T20:26:59.442Z,4.33
2018-04-04T20:29:26.833Z,6.90
2018-04-04T20:31:54.173Z,4.33
2018-04-04T20:34:21.582Z,4.00
2018-04-04T20:36:48.974Z,14.63
2018-04-04T20:39:16.373Z,4.93
2018-04-04T20:41:43.770Z,3.80
2018-04-04T20:44:11.106Z,3.77
2018-04-04T20:46:38.449Z,4.50
2018-04-04T20:49:05.873Z,4.57
2018-04-04T20:51:33.229Z,3.80
2018-04-04T20:54:00.574Z,5.57
2018-04-04T20:56:27.966Z,4.00
2018-04-04T20:58:55.329Z,4.13
2018-04-04T21:01:22.688Z,8.47
2018-04-04T21:03:50.084Z,6.40
2018-04-04T21:06:17.432Z,3.80
2018-04-04T21:08:44.781Z,8.57
2018-04-04T21:11:12.164Z,7.77
2018-04-04T21:13:39.528Z,7.37
2018-04-04T21:16:06.883Z,7.07
2018-04-04T21:18:34.282Z,9.30
2018-04-04T21:21:01.665Z,9.13
2018-04-04T21:23:29.050Z,9.23
2018-04-04T21:25:56.401Z,11.33
2018-04-04T21:28:23.785Z,9.13
2018-04-04T21:30:51.137Z,8.57
2018-04-04T21:33:18.519Z,5.27
2018-04-04T21:35:45.886Z,9.00
2018-04-04T21:38:13.258Z,6.33
2018-04-04T21:40:40.623Z,7.03
2018-04-04T21:43:08.010Z,5.30
2018-04-04T21:45:35.357Z,3.70
2018-04-04T21:48:02.710Z,5.63
2018-04-04T21:50:30.112Z,4.90
2018-04-04T21:52:57.465Z,5.93
2018-04-04T21:55:24.870Z,4.70
2018-04-04T21:57:52.250Z,5.20
2018-04-04T22:00:19.588Z,6.77
2018-04-04T22:02:46.963Z,4.90
2018-04-04T22:05:14.318Z,6.63
2018-04-04T22:07:41.685Z,5.10
2018-04-04T22:10:09.101Z,6.13
2018-04-04T22:12:36.455Z,6.80
2018-04-04T22:15:03.812Z,5.47
2018-04-04T22:17:31.201Z,4.90
2018-04-04T22:19:58.553Z,4.80
2018-04-04T22:22:25.904Z,13.23
2018-04-04T22:24:53.292Z,6.20
2018-04-04T22:27:20.644Z,6.33
2018-04-04T22:29:47.987Z,6.10
2018-04-04T22:32:15.385Z,4.47
2018-04-04T22:34:42.730Z,6.73
2018-04-04T22:37:10.077Z,7.30
2018-04-04T22:39:37.459Z,9.50
2018-04-04T22:42:04.931Z,4.30
2018-04-04T22:44:32.298Z,5.10
2018-04-04T22:46:59.670Z,4.13
2018-04-04T22:49:27.018Z,3.87
2018-04-04T22:51:54.389Z,3.93
2018-04-04T22:54:21.735Z,6.03
2018-04-04T22:56:49.099Z,7.63
2018-04-04T22:59:16.481Z,6.77
2018-04-04T23:01:43.833Z,4.23
2018-04-04T23:04:11.193Z,3.60
2018-04-04T23:06:38.556Z,3.70
2018-04-04T23:09:05.944Z,4.50
2018-04-04T23:11:33.295Z,3.33
2018-04-04T23:14:00.688Z,4.30
2018-04-04T23:16:28.046Z,7.10
2018-04-04T23:18:55.452Z,4.10
2018-04-04T23:21:22.822Z,4.17
2018-04-04T23:23:50.192Z,5.37
2018-04-04T23:26:17.543Z,6.83
2018-04-04T23:28:44.909Z,5.27
2018-04-04T23:31:12.293Z,8.03
2018-04-04T23:33:39.640Z,9.17
2018-04-04T23:36:07.003Z,6.03
2018-04-04T23:38:34.431Z,6.13
2018-04-04T23:41:01.799Z,5.50
2018-04-04T23:43:29.150Z,6.80
2018-04-04T23:45:56.530Z,8.90
2018-04-04T23:48:23.890Z,7.53
2018-04-04T23:50:51.277Z,6.70
2018-04-04T23:53:18.630Z,8.33
2018-04-04T23:55:45.984Z,6.77
2018-04-04T23:58:13.380Z,9.93
